Time;durP1;ratioP1;P1;durP2;ratioP2;P2;SDS_P1;SDS_P2;PMS_P1;PMS_P2;Temp;Humidity;BMP_temperature;BMP_pressure;BME280_temperature;BME280_humidity;BME280_pressure;Samples;Min_cycle;Max_cycle;Signal;HPM_P1;HPM_P2
2021/08/08 00:02:23;;;;;;;3.83;2.75;;;18.20;99.90;;;;;;5000873;28;20137;-85
2021/08/08 00:04:53;;;;;;;3.15;2.72;;;18.20;99.90;;;;;;5003396;28;20118;-82
2021/08/08 00:07:20;;;;;;;2.90;2.45;;;18.20;99.90;;;;;;5004901;28;20133;-85
2021/08/08 00:09:46;;;;;;;3.17;2.78;;;18.20;99.90;;;;;;5005052;28;20133;-85
2021/08/08 00:12:13;;;;;;;4.00;2.72;;;18.10;99.90;;;;;;5004659;28;20305;-86
2021/08/08 00:14:40;;;;;;;4.85;2.90;;;18.20;99.90;;;;;;5004890;28;20054;-84
2021/08/08 00:17:07;;;;;;;7.00;3.30;;;18.20;99.90;;;;;;5003988;28;20078;-86
2021/08/08 00:19:34;;;;;;;7.20;3.72;;;18.20;99.90;;;;;;5004264;28;20050;-83
2021/08/08 00:22:03;;;;;;;3.38;2.92;;;18.20;99.90;;;;;;5003932;28;20137;-83
2021/08/08 00:24:29;;;;;;;5.28;3.38;;;18.10;99.90;;;;;;5003405;28;20085;-84
2021/08/08 00:26:56;;;;;;;5.10;3.13;;;18.10;99.90;;;;;;5002027;28;20129;-82
2021/08/08 00:29:23;;;;;;;4.55;3.13;;;18.10;99.90;;;;;;5002195;28;20074;-82
2021/08/08 00:31:50;;;;;;;5.93;3.10;;;18.10;99.90;;;;;;5003448;28;20400;-84
2021/08/08 00:34:17;;;;;;;4.15;3.30;;;18.00;99.90;;;;;;5001493;28;20089;-82
2021/08/08 00:36:50;;;;;;;4.68;3.67;;;18.10;99.90;;;;;;5001445;28;20081;-84
2021/08/08 00:39:20;;;;;;;4.78;3.28;;;18.00;99.90;;;;;;5002111;28;20050;-80
2021/08/08 00:41:48;;;;;;;9.10;3.42;;;18.00;99.90;;;;;;5002833;28;20141;-83
2021/08/08 00:44:14;;;;;;;5.80;3.35;;;18.00;99.90;;;;;;5002184;28;20165;-85
2021/08/08 00:46:43;;;;;;;4.72;3.20;;;18.00;99.90;;;;;;5002080;28;20541;-83
2021/08/08 00:49:10;;;;;;;5.60;3.38;;;17.90;99.90;;;;;;5001979;28;20085;-82
2021/08/08 00:51:39;;;;;;;5.82;3.75;;;17.90;99.90;;;;;;5002618;28;20073;-82
2021/08/08 00:54:06;;;;;;;7.00;3.50;;;17.90;99.90;;;;;;5003275;28;20125;-82
2021/08/08 00:56:35;;;;;;;7.57;3.65;;;18.00;99.90;;;;;;5001916;28;20443;-81
2021/08/08 00:59:02;;;;;;;5.78;3.67;;;18.00;99.90;;;;;;5002128;28;20058;-81
2021/08/08 01:01:30;;;;;;;7.88;4.00;;;18.00;99.90;;;;;;5000907;28;20057;-83
2021/08/08 01:03:59;;;;;;;8.70;3.90;;;18.00;99.90;;;;;;5000207;28;20058;-83
2021/08/08 01:06:35;;;;;;;8.35;3.72;;;18.00;99.90;;;;;;4999318;28;20054;-83
2021/08/08 01:09:04;;;;;;;8.90;4.32;;;18.00;99.90;;;;;;5000924;28;20050;-84
2021/08/08 01:11:35;;;;;;;5.82;3.45;;;18.00;99.90;;;;;;5001495;28;20089;-85
2021/08/08 01:14:04;;;;;;;7.45;3.53;;;18.00;99.90;;;;;;5002102;28;20265;-84
2021/08/08 01:16:32;;;;;;;10.93;3.58;;;18.00;99.90;;;;;;5001668;28;20137;-82
2021/08/08 01:19:00;;;;;;;9.68;3.70;;;18.00;99.90;;;;;;5002913;28;20137;-83
2021/08/08 01:21:31;;;;;;;6.93;3.63;;;18.00;99.90;;;;;;5002662;28;20074;-84
2021/08/08 01:24:00;;;;;;;8.27;4.00;;;18.10;99.90;;;;;;5001879;28;20133;-83
2021/08/08 01:26:30;;;;;;;6.25;3.10;;;18.10;99.90;;;;;;5002346;28;20587;-82
2021/08/08 01:28:57;;;;;;;5.97;3.63;;;18.10;99.90;;;;;;5001333;28;20061;-83
2021/08/08 01:31:24;;;;;;;5.72;3.60;;;18.10;99.90;;;;;;5000138;28;20093;-83
2021/08/08 01:33:51;;;;;;;7.95;3.75;;;18.10;99.90;;;;;;5000549;28;20106;-80
2021/08/08 01:36:19;;;;;;;9.10;3.53;;;18.10;99.90;;;;;;4998647;28;20129;-83
2021/08/08 01:38:52;;;;;;;6.40;3.67;;;18.10;99.90;;;;;;4998713;28;20572;-82
2021/08/08 01:41:22;;;;;;;;;;;18.10;99.90;;;;;;4999703;28;20388;-82
2021/08/08 01:43:51;;;;;;;6.68;3.53;;;18.10;99.90;;;;;;4998603;28;20012;-79
2021/08/08 01:46:19;;;;;;;6.13;3.83;;;18.00;99.90;;;;;;5000257;28;20514;-81
2021/08/08 01:48:48;;;;;;;11.32;4.00;;;18.00;99.90;;;;;;5003869;28;20137;-81
2021/08/08 01:51:15;;;;;;;11.60;4.10;;;18.00;99.90;;;;;;5005104;28;20070;-78
2021/08/08 01:53:42;;;;;;;6.05;3.63;;;18.00;99.90;;;;;;5002935;28;20551;-79
2021/08/08 01:56:12;;;;;;;6.10;3.58;;;17.90;99.90;;;;;;4999588;28;20047;-81
2021/08/08 01:58:40;;;;;;;13.27;4.10;;;18.00;99.90;;;;;;5000292;28;20047;-81
2021/08/08 02:01:07;;;;;;;8.98;3.95;;;18.00;99.90;;;;;;4999407;28;20125;-81
2021/08/08 02:03:34;;;;;;;14.02;4.10;;;18.00;99.90;;;;;;5001373;28;20054;-83
2021/08/08 02:06:02;;;;;;;12.48;4.05;;;17.90;99.90;;;;;;5001680;28;20129;-83
2021/08/08 02:08:29;;;;;;;10.02;3.88;;;17.90;99.90;;;;;;5001126;28;20081;-83
2021/08/08 02:10:56;;;;;;;10.45;3.85;;;17.90;99.90;;;;;;5000215;28;20125;-82
2021/08/08 02:13:23;;;;;;;8.15;4.13;;;17.80;99.90;;;;;;4998587;28;20137;-82
2021/08/08 02:15:51;;;;;;;13.35;4.03;;;17.80;99.90;;;;;;4998243;28;20140;-79
2021/08/08 02:18:18;;;;;;;9.40;3.90;;;17.80;99.90;;;;;;4999039;28;20389;-80
2021/08/08 02:20:45;;;;;;;10.30;4.60;;;17.70;99.90;;;;;;4999376;28;20141;-81
2021/08/08 02:23:13;;;;;;;12.35;3.95;;;17.60;99.90;;;;;;4998817;28;20125;-81
2021/08/08 02:25:40;;;;;;;11.23;4.45;;;17.60;99.90;;;;;;4999794;28;20423;-81
2021/08/08 02:28:08;;;;;;;9.63;4.13;;;17.50;99.90;;;;;;4999872;28;20125;-80
2021/08/08 02:30:35;;;;;;;16.80;4.90;;;17.50;99.90;;;;;;5000349;28;20117;-81
2021/08/08 02:33:04;;;;;;;9.93;4.30;;;17.50;99.90;;;;;;5004093;28;20149;-81
2021/08/08 02:35:31;;;;;;;7.38;4.07;;;17.40;99.90;;;;;;5000665;28;20078;-80
2021/08/08 02:37:58;;;;;;;9.57;4.43;;;17.40;99.90;;;;;;4998678;28;20050;-79
2021/08/08 02:40:25;;;;;;;12.25;4.03;;;17.40;99.90;;;;;;4997814;28;20109;-80
2021/08/08 02:42:52;;;;;;;12.73;4.05;;;17.40;99.90;;;;;;4998294;28;20046;-77
2021/08/08 02:45:19;;;;;;;13.27;4.43;;;17.30;99.90;;;;;;4998860;28;20056;-82
2021/08/08 02:47:45;;;;;;;8.32;3.83;;;17.30;99.90;;;;;;5000294;28;20129;-82
2021/08/08 02:50:14;;;;;;;9.88;4.13;;;17.30;99.90;;;;;;5000241;28;20077;-81
2021/08/08 02:52:42;;;;;;;6.32;4.07;;;17.30;99.90;;;;;;5000066;28;20086;-81
2021/08/08 02:55:10;;;;;;;11.15;4.07;;;17.30;99.90;;;;;;4999612;28;20060;-80
2021/08/08 02:57:37;;;;;;;9.88;4.70;;;17.30;99.90;;;;;;5000297;28;20057;-80
2021/08/08 03:00:06;;;;;;;12.75;4.50;;;17.20;99.90;;;;;;5000865;28;20106;-81
2021/08/08 03:02:34;;;;;;;10.60;3.60;;;17.20;99.90;;;;;;5003879;28;20074;-81
2021/08/08 03:05:00;;;;;;;9.48;4.10;;;17.30;99.90;;;;;;5003028;28;20050;-80
2021/08/08 03:07:29;;;;;;;7.88;4.00;;;17.20;99.90;;;;;;5000949;28;20066;-81
2021/08/08 03:09:55;;;;;;;8.80;4.57;;;17.20;99.90;;;;;;5004510;28;20455;-81
2021/08/08 03:12:22;;;;;;;8.68;3.92;;;17.20;99.90;;;;;;5004843;28;20050;-81
2021/08/08 03:14:49;;;;;;;12.23;4.03;;;17.10;99.90;;;;;;5004191;28;20133;-80
2021/08/08 03:17:16;;;;;;;11.63;4.40;;;17.10;99.90;;;;;;5005275;28;20089;-81
2021/08/08 03:19:43;;;;;;;10.35;4.20;;;17.10;99.90;;;;;;5003637;28;20137;-81
2021/08/08 03:22:10;;;;;;;10.85;4.25;;;17.10;99.90;;;;;;5004110;28;20058;-81
2021/08/08 03:24:38;;;;;;;8.30;3.97;;;17.10;99.90;;;;;;5004065;28;20133;-81
2021/08/08 03:27:05;;;;;;;10.27;4.90;;;17.10;99.90;;;;;;5003720;28;20046;-83
2021/08/08 03:29:32;;;;;;;10.85;4.38;;;17.00;99.90;;;;;;5004019;28;20110;-81
2021/08/08 03:31:59;;;;;;;12.55;4.55;;;17.00;99.90;;;;;;5003833;28;20081;-83
2021/08/08 03:34:26;;;;;;;8.35;4.50;;;16.90;99.90;;;;;;5003149;28;20085;-79
2021/08/08 03:36:52;;;;;;;10.00;4.50;;;16.90;99.90;;;;;;5002174;28;20050;-81
2021/08/08 03:39:23;;;;;;;8.82;4.28;;;16.90;99.90;;;;;;5002714;28;20046;-80
2021/08/08 03:41:51;;;;;;;9.05;4.30;;;16.80;99.90;;;;;;5001414;28;20055;-80
2021/08/08 03:44:18;;;;;;;13.38;5.00;;;16.90;99.90;;;;;;5001704;28;20054;-79
2021/08/08 03:46:45;;;;;;;8.82;4.60;;;16.80;99.90;;;;;;5000365;28;20545;-80
2021/08/08 03:49:12;;;;;;;8.50;4.38;;;16.80;99.90;;;;;;5002514;28;20089;-79
2021/08/08 03:51:40;;;;;;;13.45;4.68;;;16.80;99.90;;;;;;5002421;28;20050;-80
2021/08/08 03:54:07;;;;;;;9.77;4.63;;;16.70;99.90;;;;;;5007490;28;20046;-78
2021/08/08 03:56:34;;;;;;;10.68;4.90;;;16.60;99.90;;;;;;5009658;28;20070;-79
2021/08/08 03:59:03;;;;;;;11.25;4.80;;;16.60;99.90;;;;;;5011002;28;20050;-80
2021/08/08 04:01:30;;;;;;;9.77;4.63;;;16.60;99.90;;;;;;5009302;28;20050;-81
2021/08/08 04:03:57;;;;;;;7.70;4.45;;;16.50;99.90;;;;;;5004038;28;20114;-80
2021/08/08 04:06:23;;;;;;;8.63;4.57;;;16.50;99.90;;;;;;5003235;28;20082;-81
2021/08/08 04:08:50;;;;;;;10.65;4.80;;;16.50;99.90;;;;;;5003465;28;20519;-82
2021/08/08 04:11:17;;;;;;;12.18;4.90;;;16.60;99.90;;;;;;5002977;28;20114;-81
2021/08/08 04:13:44;;;;;;;8.73;4.45;;;16.50;99.90;;;;;;5003599;28;20129;-81
2021/08/08 04:16:12;;;;;;;12.23;4.70;;;16.50;99.90;;;;;;5002770;28;20078;-80
2021/08/08 04:18:39;;;;;;;12.40;4.82;;;16.50;99.90;;;;;;5003095;28;20133;-80
2021/08/08 04:21:06;;;;;;;13.75;5.50;;;16.50;99.90;;;;;;5002885;28;20106;-80
2021/08/08 04:23:33;;;;;;;12.77;4.68;;;16.40;99.90;;;;;;5002349;28;20053;-81
2021/08/08 04:26:00;;;;;;;11.43;4.68;;;16.40;99.90;;;;;;5002083;28;20047;-80
2021/08/08 04:28:27;;;;;;;9.02;4.80;;;16.40;99.90;;;;;;5003892;28;20081;-81
2021/08/08 04:30:53;;;;;;;10.05;4.72;;;16.50;99.90;;;;;;5003075;28;20161;-78
2021/08/08 04:33:22;;;;;;;9.77;4.93;;;16.40;99.90;;;;;;5001801;28;20088;-81
2021/08/08 04:35:49;;;;;;;11.07;4.72;;;16.40;99.90;;;;;;5002695;28;20478;-82
2021/08/08 04:38:15;;;;;;;12.10;4.63;;;16.50;99.90;;;;;;5002648;28;20070;-82
2021/08/08 04:40:42;;;;;;;13.75;5.03;;;16.50;99.90;;;;;;5004297;28;20508;-83
2021/08/08 04:43:09;;;;;;;9.60;5.10;;;16.60;99.90;;;;;;5003041;28;20444;-78
2021/08/08 04:45:36;;;;;;;10.23;4.65;;;16.60;99.90;;;;;;5001513;28;20122;-81
2021/08/08 04:48:03;;;;;;;9.82;4.80;;;16.70;99.90;;;;;;5001916;28;20053;-80
2021/08/08 04:50:31;;;;;;;11.35;4.88;;;16.70;99.90;;;;;;5001794;28;20129;-80
2021/08/08 04:52:58;;;;;;;11.18;5.00;;;16.80;99.90;;;;;;5001055;28;20100;-80
2021/08/08 04:57:52;;;;;;;8.93;4.60;;;16.90;99.90;;;;;;5014487;28;20061;-78
2021/08/08 05:00:19;;;;;;;10.23;5.20;;;16.90;99.90;;;;;;5015343;28;20249;-78
2021/08/08 05:02:47;;;;;;;10.27;4.28;;;16.90;99.90;;;;;;5015532;28;20128;-78
2021/08/08 05:05:14;;;;;;;15.15;5.35;;;16.90;99.90;;;;;;5016578;28;20105;-78
2021/08/08 05:07:44;;;;;;;13.57;5.10;;;17.00;99.90;;;;;;4997694;28;20051;-79
2021/08/08 05:10:14;;;;;;;10.55;4.85;;;17.10;99.90;;;;;;4997706;28;20083;-78
2021/08/08 05:12:41;;;;;;;10.38;4.60;;;17.10;99.90;;;;;;4995879;28;20085;-78
2021/08/08 05:15:09;;;;;;;8.98;4.32;;;17.20;99.90;;;;;;4994797;28;20054;-77
2021/08/08 05:17:36;;;;;;;13.50;4.68;;;17.30;99.90;;;;;;4994845;28;20127;-78
2021/08/08 05:20:03;;;;;;;12.20;4.55;;;17.40;99.90;;;;;;4994852;28;20133;-77
2021/08/08 05:22:30;;;;;;;8.65;4.30;;;17.50;99.90;;;;;;4994412;28;20137;-78
2021/08/08 05:24:58;;;;;;;13.50;4.97;;;17.50;99.90;;;;;;4994640;28;20129;-77
2021/08/08 05:27:25;;;;;;;8.32;4.30;;;17.50;99.90;;;;;;4994853;28;20078;-78
2021/08/08 05:29:52;;;;;;;10.95;4.50;;;17.60;99.90;;;;;;4996187;28;20050;-78
2021/08/08 05:32:19;;;;;;;13.52;5.07;;;17.60;99.90;;;;;;4996242;28;20105;-78
2021/08/08 05:34:46;;;;;;;12.80;4.47;;;17.50;99.90;;;;;;4996602;28;20050;-79
2021/08/08 05:37:13;;;;;;;10.07;4.55;;;17.50;99.90;;;;;;4994708;28;20414;-78
2021/08/08 05:39:40;;;;;;;8.13;4.55;;;17.60;99.90;;;;;;4995722;28;20216;-77
2021/08/08 05:42:08;;;;;;;8.55;4.28;;;17.60;99.90;;;;;;4996159;28;20056;-77
2021/08/08 05:44:38;;;;;;;8.85;4.30;;;17.60;99.90;;;;;;4994230;28;20503;-77
2021/08/08 05:47:05;;;;;;;8.95;4.30;;;17.60;99.90;;;;;;4993673;28;20046;-77
2021/08/08 05:49:33;;;;;;;13.07;5.20;;;17.50;99.90;;;;;;4994648;28;20061;-79
2021/08/08 05:52:01;;;;;;;11.95;4.32;;;17.50;99.90;;;;;;4998620;28;20065;-79
2021/08/08 05:54:28;;;;;;;7.72;4.13;;;17.60;99.90;;;;;;4999720;28;20088;-79
2021/08/08 05:56:55;;;;;;;9.55;4.07;;;17.60;99.90;;;;;;4998916;28;20097;-79
2021/08/08 05:59:23;;;;;;;9.30;4.72;;;17.60;99.90;;;;;;4997748;28;20089;-78
2021/08/08 06:01:50;;;;;;;10.20;4.15;;;17.60;99.90;;;;;;4995754;28;20434;-78
2021/08/08 06:04:17;;;;;;;10.80;4.20;;;17.60;99.90;;;;;;4994341;28;20090;-77
2021/08/08 06:06:44;;;;;;;8.90;4.05;;;17.60;99.90;;;;;;4993407;28;20487;-76
2021/08/08 06:09:11;;;;;;;11.50;4.65;;;17.60;99.90;;;;;;4994462;28;20042;-78
2021/08/08 06:11:38;;;;;;;8.80;4.15;;;17.60;99.90;;;;;;4994548;28;20089;-78
2021/08/08 06:14:05;;;;;;;12.18;4.50;;;17.70;99.90;;;;;;4994021;28;20046;-78
2021/08/08 06:16:33;;;;;;;8.35;4.40;;;17.80;99.90;;;;;;4994347;28;20061;-78
2021/08/08 06:19:00;;;;;;;10.63;4.05;;;17.90;99.90;;;;;;4994877;28;20089;-77
2021/08/08 06:21:27;;;;;;;7.97;4.20;;;17.80;99.90;;;;;;4994159;28;20093;-78
2021/08/08 06:23:54;;;;;;;10.43;4.65;;;17.80;99.90;;;;;;4994757;28;20056;-77
2021/08/08 06:26:21;;;;;;;8.07;4.40;;;17.80;99.90;;;;;;4993486;28;20046;-79
2021/08/08 06:28:48;;;;;;;11.73;4.32;;;17.90;99.90;;;;;;4994104;28;20050;-78
2021/08/08 06:31:15;;;;;;;8.38;4.30;;;17.90;99.90;;;;;;4994154;28;20455;-78
2021/08/08 06:33:43;;;;;;;12.88;4.90;;;18.00;99.90;;;;;;4994027;28;20092;-79
2021/08/08 06:36:10;;;;;;;7.30;4.30;;;18.10;99.90;;;;;;4994286;28;20114;-78
2021/08/08 06:38:37;;;;;;;8.00;4.22;;;18.10;99.90;;;;;;4994245;28;20050;-79
2021/08/08 06:41:04;;;;;;;11.93;4.70;;;18.10;99.90;;;;;;4994073;28;20050;-78
2021/08/08 06:43:30;;;;;;;9.52;4.00;;;18.20;99.90;;;;;;4993495;28;20133;-79
2021/08/08 06:45:57;;;;;;;8.38;4.05;;;18.30;99.90;;;;;;4993822;28;20137;-78
2021/08/08 06:48:24;;;;;;;10.82;4.32;;;18.30;99.90;;;;;;4993691;28;20172;-79
2021/08/08 06:50:54;;;;;;;9.23;4.40;;;18.40;99.90;;;;;;4994293;28;20402;-78
2021/08/08 06:53:21;;;;;;;10.30;4.80;;;18.50;99.90;;;;;;4993515;28;20078;-78
2021/08/08 06:55:48;;;;;;;9.52;4.10;;;18.40;99.90;;;;;;4993391;28;20546;-78
2021/08/08 07:01:37;;;;;;;8.60;3.70;;;18.40;99.90;;;;;;4993256;28;20118;-77
2021/08/08 07:04:04;;;;;;;7.97;4.40;;;18.30;99.90;;;;;;4992916;28;20137;-77
2021/08/08 07:06:33;;;;;;;8.65;4.57;;;18.30;99.90;;;;;;4993801;28;20050;-77
2021/08/08 07:09:01;;;;;;;8.93;4.63;;;18.40;99.90;;;;;;4993379;28;20074;-77
2021/08/08 07:11:28;;;;;;;11.15;4.38;;;18.40;99.90;;;;;;4993786;28;20427;-77
2021/08/08 07:13:56;;;;;;;12.00;4.25;;;18.40;99.90;;;;;;4993669;28;20137;-76
2021/08/08 07:16:22;;;;;;;10.10;4.88;;;18.50;99.90;;;;;;4993663;28;20422;-76
2021/08/08 07:18:50;;;;;;;13.55;4.40;;;18.70;99.90;;;;;;4993691;28;20136;-76
2021/08/08 07:21:17;;;;;;;13.68;4.07;;;19.00;99.90;;;;;;4993722;28;20073;-76
2021/08/08 07:23:45;;;;;;;10.93;3.90;;;19.40;99.90;;;;;;4992970;28;20089;-75
2021/08/08 07:26:12;;;;;;;12.40;4.20;;;19.70;99.90;;;;;;4992226;28;20473;-76
2021/08/08 07:28:39;;;;;;;9.57;3.78;;;20.20;99.90;;;;;;4993167;28;20129;-75
2021/08/08 07:31:06;;;;;;;8.63;4.10;;;20.70;99.90;;;;;;4992368;28;20082;-75
2021/08/08 07:33:32;;;;;;;9.80;3.92;;;21.30;99.90;;;;;;4992853;28;20093;-76
2021/08/08 07:35:59;;;;;;;12.30;4.18;;;21.50;99.90;;;;;;4993192;28;20137;-75
2021/08/08 07:38:26;;;;;;;10.95;4.10;;;21.70;99.90;;;;;;4993400;28;20470;-75
2021/08/08 07:40:54;;;;;;;10.45;4.25;;;22.00;99.90;;;;;;4993449;28;20129;-76
2021/08/08 07:43:21;;;;;;;11.32;3.92;;;22.30;99.90;;;;;;4993241;28;20055;-76
2021/08/08 07:45:48;;;;;;;11.45;4.45;;;23.00;99.90;;;;;;4993207;28;20078;-76
2021/08/08 07:48:15;;;;;;;8.65;3.60;;;23.30;99.90;;;;;;4993467;28;20138;-76
2021/08/08 07:50:42;;;;;;;9.45;4.50;;;22.90;99.90;;;;;;4992639;28;20092;-76
2021/08/08 07:53:09;;;;;;;12.60;4.28;;;22.50;99.90;;;;;;4992055;28;20137;-75
2021/08/08 07:55:36;;;;;;;13.25;4.15;;;22.00;99.90;;;;;;4995299;28;20526;-76
2021/08/08 07:58:04;;;;;;;8.50;3.97;;;21.70;99.90;;;;;;4997172;28;20507;-76
2021/08/08 08:00:31;;;;;;;12.50;4.00;;;22.10;99.90;;;;;;4997054;28;20105;-80
2021/08/08 08:02:58;;;;;;;7.82;3.78;;;22.60;99.90;;;;;;4996417;28;20050;-77
2021/08/08 08:05:25;;;;;;;10.40;3.75;;;23.30;99.90;;;;;;4996042;28;20086;-77
2021/08/08 08:07:52;;;;;;;9.68;4.13;;;23.70;99.90;;;;;;4996454;28;20133;-77
2021/08/08 08:10:19;;;;;;;10.27;4.13;;;23.80;99.90;;;;;;4996211;28;20093;-77
2021/08/08 08:12:46;;;;;;;7.50;3.85;;;24.10;99.90;;;;;;4996202;28;20129;-77
2021/08/08 08:15:14;;;;;;;12.45;4.10;;;24.20;99.90;;;;;;4996197;28;20413;-78
2021/08/08 08:17:41;;;;;;;7.90;3.70;;;24.20;99.90;;;;;;4996156;28;20090;-78
2021/08/08 08:20:09;;;;;;;8.88;4.53;;;24.60;99.90;;;;;;4996438;28;20097;-76
2021/08/08 08:22:36;;;;;;;8.27;3.78;;;24.60;99.90;;;;;;4996629;28;20054;-77
2021/08/08 08:25:03;;;;;;;9.18;4.53;;;24.40;99.90;;;;;;4995210;28;20110;-76
2021/08/08 08:27:30;;;;;;;7.40;3.90;;;24.00;99.90;;;;;;4995699;28;20205;-76
2021/08/08 08:29:57;;;;;;;10.00;4.20;;;23.80;99.90;;;;;;4996161;28;20088;-76
2021/08/08 08:32:25;;;;;;;7.72;3.92;;;24.00;99.90;;;;;;4995587;28;20054;-77
2021/08/08 08:34:52;;;;;;;6.22;3.85;;;24.00;99.90;;;;;;4995191;28;20132;-75
2021/08/08 08:37:20;;;;;;;8.65;3.33;;;23.70;99.90;;;;;;4989868;28;20145;-75
2021/08/08 08:39:46;;;;;;;12.50;4.13;;;24.00;99.90;;;;;;4991174;28;20042;-76
2021/08/08 08:42:15;;;;;;;7.75;3.92;;;24.10;99.90;;;;;;4993091;28;20096;-76
2021/08/08 08:44:42;;;;;;;10.95;4.28;;;23.80;99.90;;;;;;4994136;28;20093;-76
2021/08/08 08:47:14;;;;;;;11.45;3.80;;;23.80;99.90;;;;;;4990537;28;20111;-76
2021/08/08 08:49:46;;;;;;;10.63;4.07;;;23.50;99.90;;;;;;4993892;28;20137;-76
2021/08/08 08:52:19;;;;;;;17.52;3.88;;;23.10;99.90;;;;;;4994133;28;20145;-76
2021/08/08 08:54:46;;;;;;;12.85;4.38;;;22.60;99.90;;;;;;4983004;28;20523;-77
2021/08/08 08:57:15;;;;;;;7.32;3.80;;;22.30;99.90;;;;;;4974524;28;20082;-77
2021/08/08 08:59:43;;;;;;;9.32;3.85;;;22.70;99.90;;;;;;4980996;28;20150;-77
2021/08/08 09:02:09;;;;;;;8.45;4.10;;;23.10;99.90;;;;;;4994437;28;20057;-77
2021/08/08 09:04:36;;;;;;;10.73;4.20;;;23.20;99.90;;;;;;4994133;28;20090;-77
2021/08/08 09:07:05;;;;;;;10.93;4.32;;;23.30;99.90;;;;;;4993975;28;20053;-76
2021/08/08 09:09:33;;;;;;;8.35;3.97;;;22.90;99.90;;;;;;4994352;28;20046;-76
2021/08/08 09:11:59;;;;;;;9.75;4.20;;;22.60;99.90;;;;;;4987748;28;20046;-77
2021/08/08 09:14:26;;;;;;;15.95;4.15;;;22.40;99.90;;;;;;4986319;28;20493;-77
2021/08/08 09:16:55;;;;;;;7.28;3.92;;;22.10;99.90;;;;;;4986794;28;20129;-77
2021/08/08 09:19:23;;;;;;;7.50;4.05;;;22.10;99.90;;;;;;4988939;28;20042;-77
2021/08/08 09:21:51;;;;;;;6.15;3.80;;;22.00;99.90;;;;;;4974886;28;20055;-77
2021/08/08 09:24:28;;;;;;;9.02;3.70;;;21.90;99.90;;;;;;4975623;28;20138;-77
2021/08/08 09:27:07;;;;;;;9.13;4.22;;;21.70;99.90;;;;;;4974433;28;20439;-77
2021/08/08 09:29:34;;;;;;;9.63;3.85;;;21.50;99.90;;;;;;4974295;28;20499;-77
2021/08/08 09:32:03;;;;;;;9.15;3.92;;;21.50;99.90;;;;;;4974886;28;20134;-77
2021/08/08 09:34:32;;;;;;;10.57;4.10;;;21.30;99.90;;;;;;4974988;28;20058;-77
2021/08/08 09:37:00;;;;;;;12.57;4.00;;;21.00;99.90;;;;;;4974963;28;20138;-76
2021/08/08 09:39:34;;;;;;;10.95;3.97;;;20.80;99.90;;;;;;4989589;28;20038;-76
2021/08/08 09:42:13;;;;;;;10.32;4.00;;;20.90;99.90;;;;;;4993480;28;20503;-77
2021/08/08 09:44:50;;;;;;;5.78;3.80;;;20.90;99.90;;;;;;4992149;28;20622;-77
2021/08/08 09:47:17;;;;;;;7.47;3.63;;;21.10;99.90;;;;;;4986937;28;20050;-77
2021/08/08 09:49:44;;;;;;;7.30;4.20;;;21.50;99.90;;;;;;4983921;28;20073;-78
2021/08/08 09:52:11;;;;;;;10.35;4.00;;;21.80;99.90;;;;;;4973724;28;20057;-77
2021/08/08 09:54:39;;;;;;;7.13;3.60;;;22.10;99.90;;;;;;4974131;28;20047;-77
2021/08/08 09:57:06;;;;;;;12.07;4.35;;;22.40;99.90;;;;;;4978289;28;20133;-77
2021/08/08 09:59:33;;;;;;;8.05;3.80;;;22.50;99.90;;;;;;4987560;28;20046;-76
2021/08/08 10:02:00;;;;;;;9.13;3.47;;;22.40;99.90;;;;;;4993599;28;20085;-77
2021/08/08 10:04:29;;;;;;;10.00;3.72;;;22.30;99.90;;;;;;4991673;28;20566;-77
2021/08/08 10:06:58;;;;;;;8.15;3.33;;;22.40;99.90;;;;;;4993152;28;20050;-77
2021/08/08 10:09:26;;;;;;;7.25;3.67;;;22.40;99.90;;;;;;4987741;28;20082;-77
2021/08/08 10:11:55;;;;;;;11.18;3.67;;;22.10;99.90;;;;;;4975086;28;20051;-78
2021/08/08 10:14:22;;;;;;;10.68;3.70;;;21.90;99.90;;;;;;4993347;28;20129;-78
2021/08/08 10:16:50;;;;;;;6.63;3.53;;;21.90;99.90;;;;;;4976927;28;20078;-77
2021/08/08 10:19:19;;;;;;;10.70;3.70;;;21.70;99.90;;;;;;4990103;28;20050;-77
2021/08/08 10:21:48;;;;;;;8.65;3.45;;;21.80;99.90;;;;;;4983361;28;20050;-77
2021/08/08 10:24:17;;;;;;;10.45;3.97;;;22.00;99.90;;;;;;4987432;28;20055;-77
2021/08/08 10:26:44;;;;;;;7.65;3.53;;;22.30;99.90;;;;;;4986517;28;20046;-77
2021/08/08 10:29:12;;;;;;;7.35;3.55;;;22.50;99.90;;;;;;4983674;28;20046;-77
2021/08/08 10:31:39;;;;;;;7.40;3.10;;;22.60;99.90;;;;;;4977835;28;20056;-77
2021/08/08 10:34:06;;;;;;;7.05;3.53;;;22.40;99.90;;;;;;4982923;28;20050;-77
2021/08/08 10:36:34;;;;;;;7.93;3.10;;;22.40;99.90;;;;;;4982154;28;20495;-77
2021/08/08 10:39:11;;;;;;;8.18;3.60;;;22.10;99.90;;;;;;4979947;28;20043;-78
2021/08/08 10:41:39;;;;;;;5.13;3.30;;;21.70;99.90;;;;;;4982622;28;20140;-78
2021/08/08 10:44:10;;;;;;;8.10;3.50;;;21.70;99.90;;;;;;4980181;28;20081;-79
2021/08/08 10:46:47;;;;;;;7.75;3.47;;;21.80;99.90;;;;;;4992334;28;20088;-79
2021/08/08 10:49:14;;;;;;;6.20;3.30;;;21.90;99.90;;;;;;4992415;28;20046;-78
2021/08/08 10:51:41;;;;;;;10.05;4.18;;;21.70;99.90;;;;;;4987330;28;20050;-78
2021/08/08 10:54:09;;;;;;;9.93;3.80;;;21.50;99.90;;;;;;4982275;28;20062;-78
2021/08/08 10:56:41;;;;;;;13.32;3.70;;;21.60;99.90;;;;;;4986275;28;20090;-79
2021/08/08 10:59:21;;;;;;;9.10;3.65;;;21.70;99.90;;;;;;5018340;23;20060;-75
2021/08/08 11:02:07;;;;;;;7.97;3.72;;;21.80;99.90;;;;;;5007979;28;20125;-75
2021/08/08 11:04:35;;;;;;;8.35;3.50;;;21.90;99.90;;;;;;5000963;28;20151;-75
2021/08/08 11:07:04;;;;;;;8.68;3.58;;;21.90;99.90;;;;;;5006004;28;20565;-76
2021/08/08 11:09:31;;;;;;;6.63;3.65;;;22.00;99.90;;;;;;4995767;28;20047;-75
2021/08/08 11:11:58;;;;;;;9.07;3.85;;;22.00;99.90;;;;;;4990224;28;20129;-76
2021/08/08 11:14:26;;;;;;;7.30;3.35;;;22.00;99.90;;;;;;4990688;28;20084;-76
2021/08/08 11:17:01;;;;;;;6.78;2.97;;;21.90;99.90;;;;;;4971090;28;20047;-75
2021/08/08 11:19:32;;;;;;;6.45;3.30;;;21.90;99.90;;;;;;4981780;28;20078;-75
2021/08/08 11:22:07;;;;;;;6.07;3.15;;;21.90;99.90;;;;;;4990813;28;20057;-76
2021/08/08 11:24:34;;;;;;;5.30;3.20;;;21.90;99.90;;;;;;4990697;28;20105;-76
2021/08/08 11:27:01;;;;;;;9.57;3.00;;;22.00;99.90;;;;;;4990920;28;20105;-76
2021/08/08 11:29:28;;;;;;;6.88;3.47;;;22.10;99.90;;;;;;4993332;28;20057;-75
2021/08/08 11:32:01;;;;;;;7.45;3.10;;;22.30;99.90;;;;;;4992970;28;20065;-77
2021/08/08 11:34:28;;;;;;;4.38;2.72;;;22.80;99.90;;;;;;4983963;28;20129;-75
2021/08/08 11:36:57;;;;;;;5.10;3.00;;;23.20;99.90;;;;;;4993224;28;20129;-74
2021/08/08 11:39:32;;;;;;;6.20;3.40;;;23.50;99.90;;;;;;4993312;28;20065;-75
2021/08/08 11:42:02;;;;;;;8.10;3.10;;;23.80;99.90;;;;;;4994327;28;20050;-75
2021/08/08 11:44:38;;;;;;;5.00;2.40;;;24.00;99.90;;;;;;4982349;28;20141;-75
2021/08/08 11:47:07;;;;;;;5.53;3.03;;;24.00;99.90;;;;;;4978908;28;20077;-75
2021/08/08 11:49:44;;;;;;;8.23;3.63;;;23.90;99.90;;;;;;4979642;28;20495;-74
2021/08/08 11:52:14;;;;;;;5.38;3.10;;;23.80;99.90;;;;;;4979466;28;20059;-74
2021/08/08 11:54:41;;;;;;;6.63;2.92;;;23.80;99.90;;;;;;4980620;28;20129;-74
2021/08/08 11:57:09;;;;;;;7.72;3.60;;;23.60;99.90;;;;;;4980444;28;20042;-74
2021/08/08 11:59:37;;;;;;;4.53;3.03;;;23.40;99.90;;;;;;4985615;28;20066;-75
2021/08/08 12:02:07;;;;;;;7.82;3.35;;;23.40;99.90;;;;;;4980765;28;20120;-75
2021/08/08 12:04:36;;;;;;;7.22;3.20;;;23.60;99.90;;;;;;4983288;28;20061;-75
2021/08/08 12:07:05;;;;;;;7.72;3.10;;;23.80;99.90;;;;;;4994419;28;20137;-75
2021/08/08 12:09:32;;;;;;;7.00;3.25;;;23.80;99.90;;;;;;4994214;28;20157;-75
2021/08/08 12:11:59;;;;;;;6.82;3.20;;;23.80;99.90;;;;;;4993983;28;20081;-76
2021/08/08 12:14:32;;;;;;;4.25;2.80;;;23.80;99.90;;;;;;4994292;28;20090;-76
2021/08/08 12:17:03;;;;;;;5.60;2.88;;;23.80;99.90;;;;;;4987519;28;20456;-75
2021/08/08 12:19:33;;;;;;;6.05;3.00;;;23.90;99.90;;;;;;4975119;28;20082;-76
2021/08/08 12:22:02;;;;;;;6.57;2.80;;;24.00;99.90;;;;;;4974707;28;20106;-76
2021/08/08 12:24:34;;;;;;;5.07;2.90;;;24.10;99.90;;;;;;4980146;28;20054;-76
2021/08/08 12:27:01;;;;;;;4.82;2.78;;;24.00;99.90;;;;;;4994138;28;20142;-76
2021/08/08 12:29:34;;;;;;;5.32;3.22;;;23.80;99.90;;;;;;4994266;28;20168;-75
2021/08/08 12:32:05;;;;;;;;;;;23.60;99.90;;;;;;4993416;28;20043;-75
2021/08/08 12:34:34;;;;;;;6.82;2.72;;;23.40;99.90;;;;;;4982664;28;19930;-75
2021/08/08 12:37:04;;;;;;;4.93;2.80;;;23.30;99.90;;;;;;4984243;28;20048;-76
2021/08/08 12:39:31;;;;;;;6.57;3.45;;;23.30;99.90;;;;;;4979185;28;20058;-75
2021/08/08 12:41:58;;;;;;;8.25;3.80;;;23.30;99.90;;;;;;4984842;28;20109;-75
2021/08/08 12:44:33;;;;;;;6.13;3.40;;;23.30;99.90;;;;;;4985399;28;20097;-75
2021/08/08 12:47:02;;;;;;;5.93;3.13;;;23.30;99.90;;;;;;4990084;28;20503;-76
2021/08/08 12:49:37;;;;;;;6.88;3.63;;;23.40;99.90;;;;;;4991875;28;20132;-77
2021/08/08 12:52:05;;;;;;;6.93;3.28;;;23.60;99.90;;;;;;4988705;28;20060;-75
2021/08/08 12:54:32;;;;;;;4.13;2.78;;;23.80;99.90;;;;;;4978903;28;20057;-75